Time;durP1;ratioP1;P1;durP2;ratioP2;P2;SDS_P1;SDS_P2;PMS_P1;PMS_P2;Temp;Humidity;BMP_temperature;BMP_pressure;BME280_temperature;BME280_humidity;BME280_pressure;Samples;Min_cycle;Max_cycle;Signal;HPM_P1;HPM_P2
2021/10/24 00:01:34;;;;;;;7.87;4.03;;;4.60;99.90;;;;;;5073589;28;20184;-66
2021/10/24 00:04:00;;;;;;;6.97;4.20;;;4.60;99.90;;;;;;5074409;28;20180;-65
2021/10/24 00:06:26;;;;;;;4.88;3.72;;;4.50;99.90;;;;;;5074331;28;20766;-67
2021/10/24 00:08:51;;;;;;;4.43;3.90;;;4.50;99.90;;;;;;5074508;28;20260;-67
2021/10/24 00:11:17;;;;;;;4.63;3.70;;;4.50;99.90;;;;;;5074588;28;20188;-67
2021/10/24 00:13:43;;;;;;;4.10;3.80;;;4.50;99.90;;;;;;5074692;28;20169;-66
2021/10/24 00:16:08;;;;;;;4.27;3.87;;;4.50;99.90;;;;;;5074491;28;20176;-67
2021/10/24 00:18:34;;;;;;;5.70;3.73;;;4.40;99.90;;;;;;5074151;28;20203;-66
2021/10/24 00:21:00;;;;;;;5.10;4.20;;;4.40;99.90;;;;;;5074445;28;20184;-67
2021/10/24 00:23:26;;;;;;;4.53;4.13;;;4.40;99.90;;;;;;5074198;28;20188;-68
2021/10/24 00:25:51;;;;;;;3.90;3.60;;;4.40;99.90;;;;;;5074266;28;20172;-67
2021/10/24 00:28:17;;;;;;;4.37;4.10;;;4.30;99.90;;;;;;5072485;28;20471;-67
2021/10/24 00:30:43;;;;;;;4.70;4.40;;;4.30;99.90;;;;;;5073985;28;20200;-65
2021/10/24 00:33:08;;;;;;;4.77;3.40;;;4.20;99.90;;;;;;5074180;28;20403;-67
2021/10/24 00:35:34;;;;;;;5.90;3.87;;;4.10;99.90;;;;;;5074068;28;20176;-67
2021/10/24 00:38:00;;;;;;;3.15;2.80;;;4.10;99.90;;;;;;5073769;28;20220;-67
2021/10/24 00:40:27;;;;;;;3.63;3.03;;;4.00;99.90;;;;;;5073981;28;20254;-67
2021/10/24 00:42:53;;;;;;;5.18;4.00;;;4.00;99.90;;;;;;5074068;28;20177;-67
2021/10/24 00:45:21;;;;;;;4.60;4.15;;;4.00;99.90;;;;;;5073916;28;20230;-67
2021/10/24 00:47:46;;;;;;;4.53;3.95;;;3.90;99.90;;;;;;5072382;28;20210;-67
2021/10/24 00:50:13;;;;;;;6.53;4.57;;;3.90;99.90;;;;;;5072488;28;20165;-67
2021/10/24 00:52:40;;;;;;;4.00;3.60;;;3.90;99.90;;;;;;5073721;28;20169;-68
2021/10/24 00:55:07;;;;;;;3.85;3.42;;;3.80;99.90;;;;;;5073761;28;20161;-68
2021/10/24 00:57:33;;;;;;;7.00;4.30;;;3.80;99.90;;;;;;5073152;28;20184;-67
2021/10/24 01:00:03;;;;;;;4.33;3.73;;;3.70;99.90;;;;;;5073752;28;20226;-68
2021/10/24 01:02:28;;;;;;;4.47;4.25;;;3.70;99.90;;;;;;5073513;28;20460;-67
2021/10/24 01:04:54;;;;;;;5.10;4.43;;;3.60;99.90;;;;;;5073564;28;20164;-67
2021/10/24 01:07:20;;;;;;;5.40;4.00;;;3.60;99.90;;;;;;5073108;28;20683;-67
2021/10/24 01:09:46;;;;;;;3.70;3.50;;;3.60;99.90;;;;;;5073687;28;20218;-68
2021/10/24 01:12:14;;;;;;;3.80;3.20;;;3.60;99.90;;;;;;5073469;28;20169;-67
2021/10/24 01:14:39;;;;;;;3.22;2.92;;;3.50;99.90;;;;;;5073474;28;20184;-68
2021/10/24 01:17:05;;;;;;;5.27;4.50;;;3.50;99.90;;;;;;5073063;28;20169;-67
2021/10/24 01:19:30;;;;;;;9.57;4.00;;;3.50;99.90;;;;;;5073574;28;20180;-66
2021/10/24 01:21:56;;;;;;;3.93;3.40;;;3.50;99.90;;;;;;5073197;28;20560;-66
2021/10/24 01:24:22;;;;;;;7.33;3.57;;;3.50;99.90;;;;;;5073374;28;20191;-66
2021/10/24 01:26:48;;;;;;;3.40;3.10;;;3.50;99.90;;;;;;5072893;28;20721;-66
2021/10/24 01:29:14;;;;;;;4.68;4.35;;;3.50;99.90;;;;;;5073080;28;20210;-66
2021/10/24 01:31:40;;;;;;;5.75;3.92;;;3.40;99.90;;;;;;5073291;28;20571;-67
2021/10/24 01:34:06;;;;;;;6.22;4.68;;;3.40;99.90;;;;;;5073300;28;20179;-66
2021/10/24 01:36:33;;;;;;;4.87;4.37;;;3.40;99.90;;;;;;5072634;28;20192;-66
2021/10/24 01:38:58;;;;;;;7.72;4.20;;;3.40;99.90;;;;;;5073229;28;20493;-66
2021/10/24 01:41:27;;;;;;;5.83;3.00;;;3.30;99.90;;;;;;5073324;28;20718;-66
2021/10/24 01:43:53;;;;;;;8.48;4.03;;;3.30;99.90;;;;;;5073221;28;20210;-68
2021/10/24 01:46:20;;;;;;;4.43;3.70;;;3.20;99.90;;;;;;5072784;28;20502;-65
2021/10/24 01:48:46;;;;;;;3.53;3.33;;;3.20;99.90;;;;;;5071745;28;20220;-66
2021/10/24 01:51:12;;;;;;;4.38;3.97;;;3.10;99.90;;;;;;5073096;28;20177;-66
2021/10/24 01:53:41;;;;;;;7.50;5.35;;;3.10;99.90;;;;;;5073084;28;20613;-67
2021/10/24 01:56:07;;;;;;;5.82;3.97;;;3.00;99.90;;;;;;5073132;28;20545;-66
2021/10/24 01:58:34;;;;;;;4.95;4.15;;;3.00;99.90;;;;;;5072422;28;20552;-66
2021/10/24 02:01:00;;;;;;;3.35;3.05;;;3.00;99.90;;;;;;5076823;28;20173;-67
2021/10/24 02:03:26;;;;;;;5.53;3.35;;;3.00;99.90;;;;;;5077119;28;20592;-66
2021/10/24 02:05:51;;;;;;;6.80;4.10;;;2.90;99.90;;;;;;5076963;28;20200;-65
2021/10/24 02:08:17;;;;;;;2.43;2.33;;;2.90;99.90;;;;;;5076536;28;20212;-64
2021/10/24 02:10:43;;;;;;;3.97;3.33;;;2.90;99.90;;;;;;5076952;28;20624;-66
2021/10/24 02:13:10;;;;;;;6.85;4.45;;;2.80;99.90;;;;;;5076901;28;20164;-65
2021/10/24 02:15:37;;;;;;;5.00;4.50;;;2.80;99.90;;;;;;5076681;28;20165;-66
2021/10/24 02:18:07;;;;;;;4.93;3.90;;;2.80;99.90;;;;;;5076290;28;20192;-65
2021/10/24 02:20:34;;;;;;;8.80;4.68;;;2.70;99.90;;;;;;5076775;28;20169;-66
2021/10/24 02:23:00;;;;;;;4.00;3.58;;;2.70;99.90;;;;;;5076486;28;20169;-67
2021/10/24 02:25:26;;;;;;;3.88;3.55;;;2.70;99.90;;;;;;5076719;28;20164;-67
2021/10/24 02:27:52;;;;;;;4.97;4.50;;;2.70;99.90;;;;;;5075842;28;20208;-66
2021/10/24 02:30:17;;;;;;;7.00;5.30;;;2.70;99.90;;;;;;5076546;28;20242;-67
2021/10/24 02:32:43;;;;;;;4.33;4.03;;;2.70;99.90;;;;;;5076525;28;20169;-67
2021/10/24 02:35:10;;;;;;;5.50;3.80;;;2.70;99.90;;;;;;5076360;28;20240;-68
2021/10/24 02:37:36;;;;;;;3.28;2.97;;;2.80;99.90;;;;;;5075687;28;20799;-67
2021/10/24 02:40:03;;;;;;;3.73;3.43;;;2.80;99.90;;;;;;5076392;28;20180;-67
2021/10/24 02:42:29;;;;;;;4.13;3.30;;;2.80;99.90;;;;;;5076280;28;20457;-67
2021/10/24 02:44:54;;;;;;;3.03;2.70;;;2.80;99.90;;;;;;5076113;28;20173;-67
2021/10/24 02:47:21;;;;;;;6.93;4.57;;;2.80;99.90;;;;;;5074387;28;20239;-67
2021/10/24 02:49:47;;;;;;;3.72;3.42;;;2.80;99.90;;;;;;5075904;28;20169;-67
2021/10/24 02:52:13;;;;;;;4.53;2.95;;;2.90;99.90;;;;;;5076111;28;20177;-67
2021/10/24 02:54:39;;;;;;;6.93;3.10;;;2.80;99.90;;;;;;5076215;28;20199;-67
2021/10/24 02:57:05;;;;;;;4.33;3.70;;;2.80;99.90;;;;;;5075569;28;20197;-66
2021/10/24 02:59:32;;;;;;;4.15;3.17;;;2.80;99.90;;;;;;5076082;28;20525;-66
2021/10/24 03:01:58;;;;;;;5.93;4.00;;;2.80;99.90;;;;;;5076099;28;20172;-67
2021/10/24 03:04:24;;;;;;;4.50;4.20;;;2.70;99.90;;;;;;5075680;28;20254;-66
2021/10/24 03:06:49;;;;;;;4.00;3.50;;;2.70;99.90;;;;;;5075402;28;20242;-66
2021/10/24 03:09:15;;;;;;;6.13;3.20;;;2.70;99.90;;;;;;5075704;28;20618;-67
2021/10/24 03:11:41;;;;;;;4.28;3.70;;;2.60;99.90;;;;;;5075233;28;20165;-66
2021/10/24 03:14:07;;;;;;;6.93;3.33;;;2.60;99.90;;;;;;5075641;28;20180;-66
2021/10/24 03:16:34;;;;;;;5.63;3.80;;;2.60;99.90;;;;;;5075295;28;20174;-66
2021/10/24 03:19:03;;;;;;;4.68;4.22;;;2.60;99.90;;;;;;5075688;28;20269;-67
2021/10/24 03:21:30;;;;;;;3.50;3.20;;;2.60;99.90;;;;;;5075396;28;20644;-65
2021/10/24 03:23:57;;;;;;;3.05;2.75;;;2.60;99.90;;;;;;5075686;28;20535;-65
2021/10/24 03:26:23;;;;;;;9.10;3.50;;;2.60;99.90;;;;;;5075022;28;20168;-66
2021/10/24 03:28:49;;;;;;;3.40;3.20;;;2.60;99.90;;;;;;5075287;28;20549;-66
2021/10/24 03:31:15;;;;;;;2.80;2.60;;;2.60;99.90;;;;;;5075702;28;20494;-68
2021/10/24 03:33:40;;;;;;;5.68;3.30;;;2.60;99.90;;;;;;5075966;28;20172;-67
2021/10/24 03:36:06;;;;;;;4.93;3.80;;;2.60;99.90;;;;;;5075592;28;20579;-67
2021/10/24 03:38:33;;;;;;;8.40;3.72;;;2.60;99.90;;;;;;5075551;28;20427;-67
2021/10/24 03:40:58;;;;;;;4.57;3.88;;;2.60;99.90;;;;;;5075629;28;20169;-66
2021/10/24 03:43:26;;;;;;;3.10;2.77;;;2.60;99.90;;;;;;5076558;28;20172;-65
2021/10/24 03:45:51;;;;;;;5.22;4.00;;;2.60;99.90;;;;;;5075695;28;20169;-67
2021/10/24 03:48:17;;;;;;;6.90;3.73;;;2.60;99.90;;;;;;5075347;28;20208;-66
2021/10/24 03:50:43;;;;;;;3.87;3.20;;;2.60;99.90;;;;;;5075564;28;20399;-67
2021/10/24 03:53:09;;;;;;;2.83;2.63;;;2.50;99.90;;;;;;5074984;28;20176;-65
2021/10/24 03:55:34;;;;;;;5.37;3.90;;;2.50;99.90;;;;;;5073721;28;20197;-67
2021/10/24 03:58:00;;;;;;;2.73;2.50;;;2.50;99.90;;;;;;5074638;28;20423;-66
2021/10/24 04:00:26;;;;;;;4.63;3.23;;;2.50;99.90;;;;;;5073639;28;20242;-66
2021/10/24 04:02:57;;;;;;;3.73;3.20;;;2.50;99.90;;;;;;5074882;28;20173;-66
2021/10/24 04:05:24;;;;;;;6.03;3.97;;;2.50;99.90;;;;;;5074852;28;20395;-65
2021/10/24 04:07:50;;;;;;;3.65;3.35;;;2.40;99.90;;;;;;5074108;28;20684;-65
2021/10/24 04:10:17;;;;;;;4.07;3.22;;;2.40;99.90;;;;;;5075001;28;20172;-66
2021/10/24 04:12:44;;;;;;;3.88;3.58;;;2.30;99.90;;;;;;5074373;28;20165;-66
2021/10/24 04:15:10;;;;;;;4.10;3.45;;;2.30;99.90;;;;;;5074563;28;20171;-66
2021/10/24 04:17:36;;;;;;;4.38;3.83;;;2.30;99.90;;;;;;5074002;28;20185;-68
2021/10/24 04:20:04;;;;;;;4.32;3.10;;;2.30;99.90;;;;;;5074525;28;20281;-68
2021/10/24 04:22:29;;;;;;;5.70;4.90;;;2.20;99.90;;;;;;5074426;28;20169;-66
2021/10/24 04:24:55;;;;;;;7.73;4.47;;;2.20;99.90;;;;;;5074437;28;20675;-66
2021/10/24 04:27:21;;;;;;;4.55;3.35;;;2.20;99.90;;;;;;5073775;28;20200;-67
2021/10/24 04:29:46;;;;;;;4.23;3.20;;;2.20;99.90;;;;;;5074473;28;20164;-66
2021/10/24 04:32:12;;;;;;;3.70;3.40;;;2.20;99.90;;;;;;5074101;28;20533;-66
2021/10/24 04:34:38;;;;;;;4.33;3.27;;;2.10;99.90;;;;;;5074271;28;20169;-67
2021/10/24 04:37:03;;;;;;;3.73;3.23;;;2.10;99.90;;;;;;5072256;28;20655;-67
2021/10/24 04:39:29;;;;;;;4.80;3.47;;;2.10;99.90;;;;;;5073956;28;20165;-67
2021/10/24 04:41:55;;;;;;;4.30;3.00;;;2.10;99.90;;;;;;5074044;28;20251;-67
2021/10/24 04:44:20;;;;;;;3.53;3.20;;;2.10;99.90;;;;;;5073871;28;20275;-66
2021/10/24 04:46:46;;;;;;;6.90;3.30;;;2.10;99.90;;;;;;5073501;28;20193;-67
2021/10/24 04:49:11;;;;;;;4.80;3.17;;;2.10;99.90;;;;;;5072542;28;20188;-67
2021/10/24 04:51:37;;;;;;;3.00;2.70;;;2.10;99.90;;;;;;5073900;28;20238;-65
2021/10/24 04:54:02;;;;;;;3.37;3.07;;;2.10;99.90;;;;;;5073755;28;20234;-67
2021/10/24 04:56:28;;;;;;;4.13;3.30;;;2.10;99.90;;;;;;5073341;28;20161;-66
2021/10/24 04:58:54;;;;;;;2.63;2.43;;;2.10;99.90;;;;;;5073696;28;20214;-67
2021/10/24 05:01:19;;;;;;;6.63;4.50;;;2.10;99.90;;;;;;5073752;28;20502;-66
2021/10/24 05:03:45;;;;;;;6.83;3.90;;;2.10;99.90;;;;;;5073773;28;20624;-66
2021/10/24 05:06:11;;;;;;;4.73;3.40;;;2.10;99.90;;;;;;5073456;28;20219;-66
2021/10/24 05:08:37;;;;;;;3.13;2.93;;;2.10;99.90;;;;;;5073332;28;20213;-67
2021/10/24 05:11:02;;;;;;;5.03;3.83;;;2.10;99.90;;;;;;5073592;28;20470;-66
2021/10/24 05:13:28;;;;;;;3.13;2.77;;;2.10;99.90;;;;;;5073441;28;20736;-66
2021/10/24 05:15:54;;;;;;;4.83;3.03;;;2.10;99.90;;;;;;5073601;28;20165;-66
2021/10/24 05:18:19;;;;;;;2.93;2.63;;;2.00;99.90;;;;;;5073140;28;20194;-67
2021/10/24 05:20:45;;;;;;;3.60;3.00;;;2.00;99.90;;;;;;5073413;28;20659;-66
2021/10/24 05:23:11;;;;;;;3.83;3.50;;;2.00;99.90;;;;;;5073127;28;20415;-68
2021/10/24 05:25:36;;;;;;;3.30;3.00;;;2.00;99.90;;;;;;5073347;28;20179;-67
2021/10/24 05:28:02;;;;;;;3.20;2.87;;;2.00;99.90;;;;;;5072713;28;20200;-67
2021/10/24 05:30:28;;;;;;;5.15;4.75;;;2.00;99.90;;;;;;5073294;28;20244;-68
2021/10/24 05:32:54;;;;;;;4.80;4.10;;;1.90;99.90;;;;;;5073409;28;20255;-67
2021/10/24 05:35:20;;;;;;;2.72;2.53;;;1.90;99.90;;;;;;5072628;28;20173;-66
2021/10/24 05:37:45;;;;;;;3.60;2.70;;;1.90;99.90;;;;;;5072866;28;20269;-65
2021/10/24 05:40:12;;;;;;;3.17;2.30;;;1.80;99.90;;;;;;5073182;28;20506;-66
2021/10/24 05:42:38;;;;;;;3.00;2.80;;;1.80;99.90;;;;;;5073248;28;20168;-66
2021/10/24 05:45:04;;;;;;;3.60;3.25;;;1.80;99.90;;;;;;5073197;28;20204;-65
2021/10/24 05:47:30;;;;;;;2.45;2.25;;;1.80;99.90;;;;;;5072557;28;20299;-66
2021/10/24 05:49:56;;;;;;;3.97;3.57;;;1.80;99.90;;;;;;5073073;28;20219;-66
2021/10/24 05:52:22;;;;;;;3.03;2.37;;;1.70;99.90;;;;;;5072952;28;20502;-66
2021/10/24 05:54:48;;;;;;;3.92;3.28;;;1.70;99.90;;;;;;5073102;28;20764;-66
2021/10/24 05:57:14;;;;;;;4.80;2.67;;;1.70;99.90;;;;;;5072658;28;20214;-66
2021/10/24 05:59:41;;;;;;;2.60;2.33;;;1.70;99.90;;;;;;5073039;28;20407;-66
2021/10/24 06:02:07;;;;;;;2.20;2.10;;;1.70;99.90;;;;;;5073193;28;20188;-66
2021/10/24 06:04:33;;;;;;;3.20;3.00;;;1.70;99.90;;;;;;5073085;28;20204;-66
2021/10/24 06:06:58;;;;;;;2.60;2.50;;;1.70;99.90;;;;;;5072390;28;20227;-66
2021/10/24 06:12:15;;;;;;;5.38;3.00;;;1.70;99.90;;;;;;5073162;28;20234;-66
2021/10/24 06:14:42;;;;;;;3.38;2.90;;;1.70;99.90;;;;;;5072842;28;20175;-65
2021/10/24 06:17:08;;;;;;;2.55;2.35;;;1.80;99.90;;;;;;5072317;28;20165;-67
2021/10/24 06:19:36;;;;;;;5.78;3.30;;;1.80;99.90;;;;;;5072838;28;20173;-66
2021/10/24 06:22:02;;;;;;;2.88;2.67;;;1.80;99.90;;;;;;5072659;28;20168;-65
2021/10/24 06:24:27;;;;;;;3.15;2.83;;;1.80;99.90;;;;;;5072994;28;20196;-65
2021/10/24 06:26:53;;;;;;;4.60;4.20;;;1.90;99.90;;;;;;5072494;28;20200;-67
2021/10/24 06:29:19;;;;;;;5.63;3.20;;;1.90;99.90;;;;;;5072679;28;20185;-67
2021/10/24 06:31:45;;;;;;;4.68;4.28;;;1.90;99.90;;;;;;5072583;28;20171;-66
2021/10/24 06:34:10;;;;;;;2.63;2.47;;;2.00;99.90;;;;;;5072638;28;20165;-68
2021/10/24 06:36:36;;;;;;;3.07;2.80;;;2.10;99.90;;;;;;5072277;28;20229;-66
2021/10/24 06:39:02;;;;;;;4.53;3.93;;;2.10;99.90;;;;;;5072528;28;20214;-67
2021/10/24 06:41:28;;;;;;;3.15;2.80;;;2.10;99.90;;;;;;5072617;28;20688;-67
2021/10/24 06:43:54;;;;;;;3.70;3.40;;;2.20;99.90;;;;;;5072555;28;20283;-65
2021/10/24 06:46:20;;;;;;;8.27;4.60;;;2.30;99.90;;;;;;5073126;28;20204;-65
2021/10/24 06:48:45;;;;;;;5.87;5.37;;;2.40;99.90;;;;;;5076211;28;20282;-66
2021/10/24 06:51:11;;;;;;;5.27;4.77;;;2.40;99.90;;;;;;5076238;28;20168;-68
2021/10/24 06:53:37;;;;;;;7.87;5.70;;;2.40;99.90;;;;;;5076201;28;20173;-67
2021/10/24 06:56:02;;;;;;;3.50;3.20;;;2.50;99.90;;;;;;5076144;28;20600;-67
2021/10/24 06:58:28;;;;;;;6.60;4.87;;;2.50;99.90;;;;;;5074323;28;20228;-67
2021/10/24 07:00:54;;;;;;;3.53;3.23;;;2.60;99.90;;;;;;5075973;28;20168;-67
2021/10/24 07:03:20;;;;;;;5.77;4.27;;;2.70;99.90;;;;;;5076908;28;20438;-67
2021/10/24 07:05:46;;;;;;;3.03;2.83;;;2.80;99.90;;;;;;5076497;28;20165;-66
2021/10/24 07:08:12;;;;;;;5.93;4.57;;;3.00;99.90;;;;;;5076169;28;20563;-67
2021/10/24 07:10:38;;;;;;;6.77;5.00;;;3.20;99.90;;;;;;5077540;28;20921;-67
2021/10/24 07:13:04;;;;;;;3.67;3.37;;;3.20;99.90;;;;;;5080632;28;20222;-67
2021/10/24 07:15:30;;;;;;;4.50;4.07;;;3.30;99.90;;;;;;5077391;28;20505;-64
2021/10/24 07:17:55;;;;;;;3.50;3.10;;;3.40;99.90;;;;;;5079627;28;20242;-64
2021/10/24 07:20:21;;;;;;;4.97;4.57;;;3.70;99.90;;;;;;5081406;28;20264;-64
2021/10/24 07:22:47;;;;;;;7.03;4.50;;;4.10;99.90;;;;;;5077614;28;20172;-65
2021/10/24 07:25:13;;;;;;;9.80;5.70;;;4.50;99.90;;;;;;5078919;28;20257;-65
2021/10/24 07:27:40;;;;;;;7.10;4.67;;;4.80;99.90;;;;;;5077470;28;20204;-67
2021/10/24 07:30:07;;;;;;;5.18;4.68;;;4.90;99.90;;;;;;5075213;28;20392;-68
2021/10/24 07:32:33;;;;;;;6.57;5.63;;;5.00;99.90;;;;;;5075373;28;20521;-68
2021/10/24 07:34:58;;;;;;;6.40;5.77;;;5.00;99.90;;;;;;5075353;28;20161;-69
2021/10/24 07:37:24;;;;;;;6.97;6.23;;;5.00;99.90;;;;;;5075083;28;20207;-70
2021/10/24 07:39:49;;;;;;;8.00;6.83;;;5.10;99.90;;;;;;5075433;28;20172;-69
2021/10/24 07:42:15;;;;;;;5.63;5.13;;;5.40;99.90;;;;;;5075177;28;20178;-69
2021/10/24 07:44:41;;;;;;;7.30;4.13;;;6.10;99.90;;;;;;5075358;28;20203;-70
2021/10/24 07:47:06;;;;;;;5.57;4.83;;;7.30;99.90;;;;;;5074418;28;20196;-69
2021/10/24 07:49:32;;;;;;;6.53;5.93;;;8.50;99.90;;;;;;5074741;28;20173;-69
2021/10/24 07:51:58;;;;;;;5.00;4.53;;;9.60;99.90;;;;;;5074136;28;20874;-71
2021/10/24 07:54:24;;;;;;;3.90;3.10;;;11.00;99.90;;;;;;5073929;28;20750;-70
2021/10/24 07:56:51;;;;;;;3.47;3.17;;;12.20;99.90;;;;;;5053276;28;20177;-70
2021/10/24 07:59:18;;;;;;;4.17;3.87;;;13.30;99.90;;;;;;5053096;28;20185;-71
2021/10/24 08:01:44;;;;;;;3.27;2.97;;;14.20;97.90;;;;;;5054249;28;20386;-74
2021/10/24 08:04:09;;;;;;;4.23;3.83;;;15.00;95.20;;;;;;5054065;28;20421;-72
2021/10/24 08:06:36;;;;;;;4.30;2.93;;;15.70;94.60;;;;;;5054341;28;20174;-69
2021/10/24 08:09:06;;;;;;;4.20;3.20;;;16.50;92.70;;;;;;5054284;28;20200;-69
2021/10/24 08:11:36;;;;;;;3.70;3.40;;;17.40;90.20;;;;;;5054013;28;20390;-69
2021/10/24 08:14:05;;;;;;;3.07;2.87;;;17.90;87.20;;;;;;5054296;28;20382;-69
2021/10/24 08:16:30;;;;;;;3.70;3.40;;;18.50;84.50;;;;;;5054343;28;20394;-69
2021/10/24 08:18:56;;;;;;;3.87;3.57;;;18.90;78.20;;;;;;5054163;28;20428;-69
2021/10/24 08:21:22;;;;;;;3.00;2.80;;;19.20;78.80;;;;;;5053934;28;20537;-70
2021/10/24 08:23:48;;;;;;;3.90;2.80;;;19.30;77.50;;;;;;5068261;28;20387;-69
2021/10/24 08:26:17;;;;;;;10.47;7.20;;;19.60;74.60;;;;;;5051670;28;20411;-69
2021/10/24 08:28:43;;;;;;;4.77;3.87;;;19.90;74.00;;;;;;5046135;28;20462;-69
2021/10/24 08:31:10;;;;;;;3.30;2.70;;;20.20;72.40;;;;;;5060982;28;20433;-69
2021/10/24 08:33:36;;;;;;;3.70;3.00;;;20.40;72.50;;;;;;5073626;28;20403;-70
2021/10/24 08:36:03;;;;;;;3.83;3.57;;;20.70;71.20;;;;;;5073698;28;20401;-69
2021/10/24 08:38:30;;;;;;;3.10;2.90;;;21.00;69.60;;;;;;5072639;28;20322;-69
2021/10/24 08:40:57;;;;;;;3.57;2.70;;;21.30;69.00;;;;;;5072638;28;20381;-68
2021/10/24 08:43:32;;;;;;;4.20;3.80;;;21.60;69.10;;;;;;5073326;28;20415;-69
2021/10/24 08:45:58;;;;;;;3.33;3.03;;;22.00;64.90;;;;;;5073974;28;20791;-67
2021/10/24 08:48:24;;;;;;;3.60;3.40;;;22.10;65.80;;;;;;5072035;28;20458;-67
2021/10/24 08:50:51;;;;;;;4.07;3.77;;;22.40;65.90;;;;;;5073716;28;20396;-67
2021/10/24 08:53:24;;;;;;;3.80;3.50;;;22.60;64.30;;;;;;5073445;28;20404;-66
2021/10/24 08:55:50;;;;;;;4.97;4.47;;;22.80;64.60;;;;;;5073521;28;20370;-66
2021/10/24 08:58:16;;;;;;;3.17;2.90;;;22.90;63.10;;;;;;5073343;28;20485;-68
2021/10/24 09:00:43;;;;;;;2.63;2.43;;;23.00;62.30;;;;;;5073668;28;20386;-68
2021/10/24 09:03:09;;;;;;;2.77;2.57;;;23.00;61.30;;;;;;5073640;28;20172;-67
2021/10/24 09:05:43;;;;;;;3.47;3.03;;;23.10;60.20;;;;;;5073560;28;20484;-66
2021/10/24 09:08:18;;;;;;;2.67;2.47;;;23.20;60.30;;;;;;5069690;28;20433;-67
2021/10/24 09:10:46;;;;;;;2.80;2.60;;;23.30;59.80;;;;;;5069785;28;20906;-68
2021/10/24 09:13:14;;;;;;;2.80;2.37;;;23.40;59.60;;;;;;5071448;28;20411;-68
2021/10/24 09:16:00;;;;;;;3.47;3.23;;;23.40;59.90;;;;;;5071318;28;20442;-67
2021/10/24 09:18:40;;;;;;;2.93;2.50;;;23.50;59.50;;;;;;5070898;28;20431;-66
2021/10/24 09:21:15;;;;;;;3.00;2.77;;;23.60;58.20;;;;;;5073533;28;20826;-66
2021/10/24 09:23:59;;;;;;;3.37;3.17;;;23.80;58.10;;;;;;5073096;28;20409;-69
2021/10/24 09:26:30;;;;;;;2.53;2.30;;;23.80;58.20;;;;;;5072745;28;20776;-68
2021/10/24 09:29:06;;;;;;;2.33;2.13;;;23.60;58.40;;;;;;5072792;28;20543;-67
2021/10/24 09:31:32;;;;;;;2.80;2.60;;;23.80;58.30;;;;;;5073194;28;20541;-68
2021/10/24 09:34:22;;;;;;;3.47;2.80;;;24.20;58.10;;;;;;5073308;28;20453;-67
2021/10/24 09:36:51;;;;;;;3.33;2.90;;;24.10;57.70;;;;;;5072723;28;20870;-68
2021/10/24 09:39:19;;;;;;;3.23;3.00;;;24.00;58.20;;;;;;5073065;28;20454;-66
2021/10/24 09:41:45;;;;;;;2.93;2.70;;;23.70;57.60;;;;;;5071150;28;20933;-68
2021/10/24 09:44:19;;;;;;;3.50;3.20;;;23.60;57.70;;;;;;5072884;28;20406;-66
2021/10/24 09:46:56;;;;;;;2.40;2.30;;;23.60;58.00;;;;;;5072622;28;20476;-67
2021/10/24 09:49:23;;;;;;;3.20;3.00;;;23.20;58.40;;;;;;5071748;28;20491;-67
2021/10/24 09:51:49;;;;;;;2.53;2.43;;;23.20;58.50;;;;;;5072193;28;20426;-65
2021/10/24 09:54:23;;;;;;;2.73;2.53;;;22.90;58.70;;;;;;5072825;28;20474;-67
2021/10/24 09:56:50;;;;;;;3.20;2.90;;;23.10;58.60;;;;;;5072642;28;20382;-67
2021/10/24 09:59:19;;;;;;;2.40;2.30;;;23.30;58.50;;;;;;5072777;28;20402;-72
2021/10/24 10:01:47;;;;;;;3.27;2.97;;;23.40;58.30;;;;;;5072866;28;20374;-70
2021/10/24 10:04:13;;;;;;;2.17;2.07;;;23.30;58.10;;;;;;5071164;28;20403;-71
2021/10/24 10:06:43;;;;;;;3.00;2.80;;;23.20;58.50;;;;;;5071172;28;20468;-72
2021/10/24 10:09:09;;;;;;;2.20;2.10;;;23.10;58.80;;;;;;5072131;28;20419;-69
2021/10/24 10:11:50;;;;;;;2.23;2.00;;;22.90;58.80;;;;;;5072394;28;20502;-69
2021/10/24 10:14:22;;;;;;;2.87;2.20;;;22.50;58.60;;;;;;5072598;28;20260;-69
2021/10/24 10:17:03;;;;;;;2.10;2.00;;;22.40;58.80;;;;;;5072372;28;20378;-68
2021/10/24 10:19:37;;;;;;;1.90;1.80;;;22.30;58.80;;;;;;5071511;28;20432;-67
2021/10/24 10:22:21;;;;;;;4.83;2.37;;;22.20;59.80;;;;;;5076600;28;20411;-70
2021/10/24 10:24:47;;;;;;;3.80;3.50;;;22.20;60.30;;;;;;5076347;28;20385;-69
2021/10/24 10:27:38;;;;;;;2.63;2.40;;;22.20;60.00;;;;;;5075783;28;20507;-67
2021/10/24 10:30:33;;;;;;;2.57;2.37;;;22.20;60.70;;;;;;5075943;28;20737;-71
2021/10/24 10:33:01;;;;;;;2.47;2.27;;;22.40;60.20;;;;;;5075376;28;20390;-73
2021/10/24 10:35:27;;;;;;;2.63;2.07;;;22.60;61.00;;;;;;5075834;28;20495;-68
2021/10/24 10:37:58;;;;;;;2.17;2.07;;;22.80;60.10;;;;;;5075917;28;20398;-68
2021/10/24 10:40:38;;;;;;;2.30;2.10;;;22.80;59.90;;;;;;5076267;28;20442;-68
2021/10/24 10:43:18;;;;;;;2.30;2.10;;;22.30;59.30;;;;;;5076441;28;20493;-67
2021/10/24 10:45:47;;;;;;;2.57;2.37;;;22.00;59.80;;;;;;5076236;28;20407;-67
2021/10/24 10:48:34;;;;;;;2.27;2.13;;;21.80;59.90;;;;;;5075198;28;20440;-67
2021/10/24 10:51:15;;;;;;;2.60;2.40;;;21.10;62.30;;;;;;5074263;28;20562;-67
2021/10/24 10:53:46;;;;;;;2.23;2.10;;;20.70;62.70;;;;;;5074359;28;20424;-68
2021/10/24 10:56:12;;;;;;;2.40;2.20;;;20.30;63.80;;;;;;5074181;28;20522;-67
2021/10/24 10:58:43;;;;;;;2.40;2.20;;;20.10;64.50;;;;;;5073851;28;20529;-68
2021/10/24 11:01:24;;;;;;;2.20;2.10;;;19.50;64.60;;;;;;5074383;28;20592;-68
2021/10/24 11:03:52;;;;;;;2.67;2.43;;;18.70;68.20;;;;;;5074581;28;20391;-68
2021/10/24 11:06:23;;;;;;;2.17;2.07;;;18.00;68.70;;;;;;5075513;28;20761;-68
2021/10/24 11:08:50;;;;;;;4.10;2.13;;;17.30;70.20;;;;;;5075519;28;20452;-68
2021/10/24 11:14:16;;;;;;;2.27;1.90;;;16.20;75.70;;;;;;5075514;28;20782;-68
2021/10/24 11:16:49;;;;;;;3.60;2.47;;;15.90;77.60;;;;;;5075379;28;20454;-67
2021/10/24 11:19:29;;;;;;;2.30;2.10;;;15.60;77.60;;;;;;5075784;28;20442;-68
2021/10/24 11:22:06;;;;;;;2.17;1.97;;;15.30;79.50;;;;;;5075482;28;20419;-67
2021/10/24 11:24:49;;;;;;;2.80;2.40;;;15.20;80.70;;;;;;5055491;28;20407;-68
2021/10/24 11:27:19;;;;;;;2.37;2.17;;;15.20;80.80;;;;;;5054917;28;20524;-68
2021/10/24 11:29:48;;;;;;;1.93;1.83;;;15.00;82.30;;;;;;5055400;28;20406;-67
2021/10/24 11:32:23;;;;;;;6.00;2.10;;;15.00;80.80;;;;;;5054524;28;20400;-67
2021/10/24 11:34:50;;;;;;;4.47;2.20;;;15.00;81.00;;;;;;5055083;28;20412;-67
2021/10/24 11:37:17;;;;;;;2.60;2.40;;;14.80;81.70;;;;;;5054027;28;20440;-67
2021/10/24 11:39:47;;;;;;;1.83;1.73;;;14.70;82.30;;;;;;5055063;28;20408;-67
2021/10/24 11:42:14;;;;;;;3.50;3.20;;;14.50;85.00;;;;;;5055419;28;20490;-67
2021/10/24 11:44:41;;;;;;;2.57;2.03;;;14.50;84.90;;;;;;5054926;28;20483;-66
2021/10/24 11:47:15;;;;;;;2.10;1.80;;;14.40;85.40;;;;;;5054474;28;20459;-66
2021/10/24 11:49:48;;;;;;;3.23;2.30;;;14.40;86.10;;;;;;5055054;28;20426;-66
2021/10/24 11:52:26;;;;;;;1.90;1.80;;;14.50;85.90;;;;;;5055130;28;20418;-66
2021/10/24 11:55:19;;;;;;;2.03;1.93;;;14.60;84.80;;;;;;5054810;28;20454;-67
2021/10/24 11:58:01;;;;;;;2.43;2.23;;;14.50;86.40;;;;;;5052417;28;20440;-67
2021/10/24 12:00:49;;;;;;;2.00;1.80;;;14.40;87.60;;;;;;5055060;28;20407;-67
2021/10/24 12:03:53;;;;;;;2.00;1.80;;;14.50;87.20;;;;;;5053856;28;20422;-67
2021/10/24 12:06:39;;;;;;;2.10;1.97;;;14.40;86.20;;;;;;5047705;28;20426;-67
2021/10/24 12:09:05;;;;;;;2.73;2.20;;;14.50;86.70;;;;;;5052995;28;20470;-66
2021/10/24 12:11:47;;;;;;;2.90;2.07;;;14.60;87.30;;;;;;5054788;28;20798;-66
2021/10/24 12:14:13;;;;;;;1.90;1.80;;;14.70;89.00;;;;;;5054474;28;20495;-67
2021/10/24 12:16:41;;;;;;;1.67;1.60;;;14.70;87.40;;;;;;5054246;28;20795;-66
2021/10/24 12:19:14;;;;;;;3.80;2.20;;;14.80;87.20;;;;;;5054560;28;20435;-67
2021/10/24 12:21:52;;;;;;;3.03;2.40;;;14.80;88.40;;;;;;5054805;28;20408;-66
2021/10/24 12:24:21;;;;;;;2.50;2.33;;;14.80;88.50;;;;;;5073366;28;20476;-66
2021/10/24 12:26:46;;;;;;;5.00;2.37;;;14.90;88.60;;;;;;5074136;28;20406;-67
2021/10/24 12:29:15;;;;;;;2.23;2.03;;;15.00;89.60;;;;;;5074240;28;20405;-67
2021/10/24 12:31:41;;;;;;;2.50;2.30;;;15.00;89.80;;;;;;5074032;28;20188;-66
2021/10/24 12:34:14;;;;;;;2.43;2.30;;;15.10;89.70;;;;;;5074477;28;20410;-67
2021/10/24 12:36:41;;;;;;;2.03;1.93;;;15.20;87.90;;;;;;5073593;28;20439;-67
2021/10/24 12:39:20;;;;;;;2.37;2.17;;;15.20;88.70;;;;;;5074137;28;20450;-67
2021/10/24 12:41:47;;;;;;;3.80;3.00;;;15.30;88.60;;;;;;5074132;28;20409;-67
2021/10/24 12:44:15;;;;;;;2.70;2.50;;;15.30;88.00;;;;;;5072957;28;20423;-67
2021/10/24 12:46:41;;;;;;;2.83;2.63;;;15.40;87.40;;;;;;5073588;28;20445;-66
2021/10/24 12:49:18;;;;;;;1.43;1.33;;;15.40;87.80;;;;;;5073532;28;20436;-67
2021/10/24 12:51:46;;;;;;;2.37;1.70;;;15.40;87.50;;;;;;5073703;28;20406;-67
2021/10/24 12:54:24;;;;;;;2.50;2.30;;;15.50;87.30;;;;;;5073846;28;20405;-67
2021/10/24 12:56:50;;;;;;;1.70;1.60;;;15.40;86.20;;;;;;5073231;28;20443;-67
2021/10/24 12:59:16;;;;;;;2.20;2.00;;;15.40;86.30;;;;;;5073246;28;20470;-66
2021/10/24 13:01:47;;;;;;;1.53;1.40;;;15.40;86.40;;;;;;5073401;28;20182;-68
2021/10/24 13:04:13;;;;;;;1.70;1.60;;;15.40;86.30;;;;;;5073492;28;20180;-67